Latest Weather Observations for Casterton

IDV60801

Issued at 11:02 am EDT Saturday 6 February 2016 (issued every 30 minutes, with the page automatically refreshed every 10 minutes)

About weather observations | Map of weather stations | Latest weather observations for VIC | Other Formats
Station Details ID: 090182 Name: CASTERTON Lat: -37.58 Lon: 141.33 Height: 130.6 m
Data from the previous 72 hours. | See also: Recent months at Casterton
Date/Time
EDT
Temp
°C
App
Temp
°C
Dew
Point
Rel
Hum
%
Delta-T
°C
Wind Press
QNH
hPa
Press
MSL
hPa
Rain
since 9 am
mm
Dir
 
Spd
km/h
Gust
km/h
Spd
kts
Gust
kts
06/11:00am 27.9 26.3 11.5 36 9.4 N 11 17 6 9 1016.2 - 0.0
06/10:30am 26.2 24.2 11.5 40 8.4 NNE 13 22 7 12 1016.2 - 0.0
06/10:00am 24.1 23.0 13.0 50 6.5 NNE 11 19 6 10 1016.5 - 0.0
06/09:30am 21.7 21.6 13.9 61 4.6 NE 7 11 4 6 1016.5 - 0.0
06/09:00am 18.6 18.8 14.7 78 2.3 ENE 7 9 4 5 1016.4 1015.9 0.0
06/08:30am 16.8 16.7 15.0 89 1.0 ENE 9 11 5 6 1016.3 - 0.0
06/08:00am 15.5 16.1 15.2 98 0.2 E 6 7 3 4 1016.0 - 0.0
06/07:30am 14.2 14.1 13.9 98 0.2 ESE 7 11 4 6 1015.8 - 0.0
06/07:00am 13.1 12.6 12.8 98 0.2 E 7 9 4 5 1015.3 - 0.0
06/06:30am 13.6 13.3 13.3 98 0.2 E 7 11 4 6 1015.1 - 0.0
06/06:00am 14.0 13.5 13.7 98 0.2 ENE 9 13 5 7 1014.9 1014.4 0.0
06/05:30am 14.7 13.6 14.4 98 0.2 E 13 19 7 10 1014.9 - 0.0
06/05:00am 14.9 14.6 14.3 96 0.3 E 9 15 5 8 1014.9 - 0.0
06/04:30am 15.3 14.3 14.5 95 0.5 E 13 20 7 11 1015.1 - 0.0
06/04:00am 16.0 14.2 14.5 91 0.9 E 17 24 9 13 1015.1 - 0.0
06/03:30am 16.4 14.1 14.2 87 1.3 E 19 26 10 14 1015.3 - 0.0
06/03:00am 16.6 14.3 14.1 85 1.4 E 19 26 10 14 1015.7 1015.2 0.0
06/02:30am 17.0 14.1 14.1 83 1.7 ESE 22 33 12 18 1015.8 - 0.0
06/02:00am 17.4 14.6 14.3 82 1.8 ESE 22 35 12 19 1016.0 - 0.0
06/01:30am 17.6 15.4 14.5 82 1.8 ESE 19 28 10 15 1016.4 - 0.0
06/01:00am 17.5 16.8 15.3 87 1.3 SE 13 20 7 11 1016.7 - 0.0
06/12:30am 16.9 17.1 15.8 93 0.6 SE 9 13 5 7 1016.8 - 0.0
06/12:00am 17.0 16.9 16.0 94 0.6 ESE 11 17 6 9 1017.1 1016.6 0.0
 
Date/Time
EDT
Temp
°C
App
Temp
°C
Dew
Point
Rel
Hum
%
Delta-T
°C
Wind Press
QNH
hPa
Press
MSL
hPa
Rain
since 9 am
mm
Dir
 
Spd
km/h
Gust
km/h
Spd
kts
Gust
kts
05/11:30pm 17.0 17.5 15.5 91 0.9 SE 7 13 4 7 1017.3 - 0.0
05/11:00pm 17.2 17.2 15.2 88 1.2 SE 9 13 5 7 1017.4 - 0.0
05/10:30pm 17.6 17.5 14.9 84 1.6 SSE 9 11 5 6 1017.7 - 0.0
05/10:00pm 18.4 17.8 14.5 78 2.3 SSE 11 13 6 7 1017.6 - 0.0
05/09:30pm 19.2 18.6 14.5 74 2.7 SSE 11 13 6 7 1017.5 - 0.0
05/09:00pm 20.0 18.6 14.4 70 3.3 SE 15 22 8 12 1017.2 1016.7 0.0
05/08:30pm 21.1 19.2 14.3 65 4.0 SSE 17 24 9 13 1016.9 - 0.0
05/08:00pm 22.6 20.3 14.2 59 4.9 SSE 19 28 10 15 1016.7 - 0.0
05/07:30pm 23.8 20.9 13.9 54 5.8 SSE 22 30 12 16 1016.2 - 0.0
05/07:00pm 25.5 22.7 14.3 50 6.7 SE 22 32 12 17 1015.8 - 0.0
05/06:30pm 26.2 23.3 14.0 47 7.3 SSE 22 33 12 18 1015.6 - 0.0
05/06:00pm 27.6 25.0 13.9 43 8.2 SE 20 37 11 20 1015.6 1015.1 0.0
05/05:30pm 28.8 26.2 13.1 38 9.3 ESE 19 30 10 16 1015.6 - 0.0
05/05:00pm 29.4 26.7 10.5 31 10.8 ESE 15 24 8 13 1015.7 - 0.0
05/04:30pm 28.9 25.9 10.6 32 10.4 ESE 17 26 9 14 1016.0 - 0.0
05/04:00pm 28.5 25.5 10.7 33 10.2 ESE 17 30 9 16 1016.4 - 0.0
05/03:30pm 27.9 25.9 11.5 36 9.5 ENE 13 26 7 14 1016.9 - 0.0
05/03:00pm 26.8 24.3 10.9 37 9.0 E 15 26 8 14 1017.5 1017.0 0.0
05/02:30pm 26.4 23.9 10.9 38 8.8 E 15 28 8 15 1017.8 - 0.0
05/02:00pm 26.7 24.1 12.0 40 8.5 E 17 28 9 15 1018.1 - 0.0
05/01:30pm 26.3 23.7 12.0 41 8.3 ESE 17 26 9 14 1018.4 - 0.0
05/01:00pm 24.9 22.2 11.8 44 7.5 ESE 17 32 9 17 1018.8 - 0.0
05/12:30pm 24.4 21.1 11.7 45 7.2 ESE 20 32 11 17 1019.3 - 0.0
05/12:00pm 23.2 18.9 11.9 49 6.4 E 26 33 14 18 1019.7 1019.3 0.0
05/11:30am 22.3 17.9 11.7 51 6.0 E 26 33 14 18 1019.8 - 0.0
05/11:00am 21.2 16.8 11.8 55 5.3 ESE 26 35 14 19 1020.1 - 0.0
05/10:30am 20.4 16.1 12.1 59 4.7 ESE 26 39 14 21 1020.4 - 0.0
05/10:00am 18.6 14.0 11.2 62 4.1 SE 26 35 14 19 1020.6 - 0.0
05/09:30am 17.6 13.7 10.9 65 3.6 SE 22 33 12 18 1020.8 - 0.0
05/09:00am 16.6 12.8 11.3 71 2.9 ESE 22 35 12 19 1020.8 1020.3 0.0
05/08:30am 15.7 12.5 11.1 74 2.5 SE 19 30 10 16 1020.6 - 0.0
05/08:00am 15.2 11.2 10.6 74 2.4 ESE 22 35 12 19 1020.5 - 0.0
05/07:30am 14.7 10.7 10.3 75 2.3 ESE 22 33 12 18 1020.3 - 0.0
05/07:00am 14.7 9.9 10.3 75 2.3 SE 26 35 14 19 1019.8 - 0.0
05/06:30am 14.6 10.1 10.2 75 2.3 SE 24 37 13 20 1019.6 - 0.0
05/06:00am 14.5 10.8 10.3 76 2.2 SE 20 33 11 18 1019.5 1019.1 0.0
05/05:30am 14.2 10.7 10.2 77 2.1 SE 19 30 10 16 1019.3 - 0.0
05/05:00am 14.4 11.0 10.4 77 2.1 SE 19 33 10 18 1019.2 - 0.0
05/04:30am 14.4 11.0 10.4 77 2.1 SE 19 28 10 15 1019.3 - 0.0
05/04:00am 14.4 10.7 10.2 76 2.2 SE 20 28 11 15 1019.3 - 0.0
05/03:30am 14.4 10.3 10.2 76 2.2 SE 22 32 12 17 1019.5 - 0.0
05/03:00am 14.4 10.7 10.2 76 2.2 SE 20 28 11 15 1019.6 1019.2 0.0
05/02:30am 14.2 10.6 10.0 76 2.2 SE 19 30 10 16 1020.0 - 0.0
05/02:00am 14.2 10.4 9.8 75 2.3 SE 20 32 11 17 1020.4 - 0.0
05/01:30am 14.3 10.7 9.7 74 2.4 SE 19 26 10 14 1020.5 - 0.0
05/01:00am 14.3 10.7 9.7 74 2.4 SE 19 26 10 14 1020.7 - 0.0
05/12:30am 14.3 10.7 9.7 74 2.4 SE 19 32 10 17 1020.7 - 0.0
05/12:00am 14.6 11.9 10.2 75 2.3 SE 15 20 8 11 1020.9 1020.4 0.0
 
Date/Time
EDT
Temp
°C
App
Temp
°C
Dew
Point
Rel
Hum
%
Delta-T
°C
Wind Press
QNH
hPa
Press
MSL
hPa
Rain
since 9 am
mm
Dir
 
Spd
km/h
Gust
km/h
Spd
kts
Gust
kts
04/11:30pm 14.4 10.8 10.0 75 2.3 SE 19 32 10 17 1021.0 - 0.0
04/11:00pm 14.6 11.4 10.0 74 2.4 SE 17 28 9 15 1021.1 - 0.0
04/10:30pm 14.9 10.7 9.9 72 2.6 SE 22 32 12 17 1021.2 - 0.0
04/10:00pm 14.9 10.7 9.9 72 2.6 SSE 22 32 12 17 1021.1 - 0.0
04/09:30pm 15.0 11.4 10.0 72 2.6 SSE 19 28 10 15 1021.0 - 0.0
04/09:00pm 15.4 11.7 9.5 68 3.1 SSE 19 30 10 16 1020.7 1020.2 0.0
04/08:30pm 16.3 12.6 9.5 64 3.6 SSE 19 28 10 15 1020.3 - 0.0
04/08:00pm 17.3 13.0 9.2 59 4.2 SSE 22 30 12 16 1019.9 - 0.0
04/07:30pm 18.7 14.4 9.2 54 5.0 SSE 22 32 12 17 1019.4 - 0.0
04/07:00pm 19.2 14.3 8.5 50 5.6 SSE 24 35 13 19 1019.3 - 0.0
04/06:30pm 20.2 15.4 8.8 48 6.0 SE 24 33 13 18 1019.1 - 0.0
04/06:00pm 21.0 15.8 8.9 46 6.4 SSE 26 39 14 21 1019.1 1018.7 0.0
04/05:30pm 21.6 16.8 8.8 44 6.8 SE 24 35 13 19 1019.1 - 0.0
04/05:00pm 21.6 16.9 9.2 45 6.7 SSE 24 37 13 20 1019.4 - 0.0
04/04:30pm 22.0 16.9 9.2 44 6.9 SE 26 39 14 21 1019.4 - 0.0
04/04:00pm 22.7 18.7 9.1 42 7.3 SE 20 30 11 16 1019.3 - 0.0
04/03:30pm 22.7 18.5 9.8 44 7.0 SSE 22 35 12 19 1019.7 - 0.0
04/03:00pm 22.6 16.9 9.7 44 7.0 S 30 43 16 23 1019.8 1019.4 0.0
04/02:30pm 23.1 19.5 9.8 43 7.3 SSE 19 33 10 18 1020.0 - 0.0
04/02:00pm 21.4 17.5 8.7 44 6.7 S 19 32 10 17 1020.4 - 0.0
04/01:30pm 21.2 17.3 9.4 47 6.3 SSE 20 37 11 20 1020.6 - 0.0
04/01:00pm 21.7 17.9 9.9 47 6.4 SE 20 32 11 17 1020.7 - 0.0
04/12:30pm 20.3 16.0 9.2 49 5.9 SSE 22 32 12 17 1021.0 - 0.0
04/12:00pm 20.4 16.5 9.6 50 5.8 SE 20 33 11 18 1021.2 1020.7 0.0
04/11:30am 19.1 14.3 9.0 52 5.3 SE 24 35 13 19 1021.3 - 0.0
04/11:00am 18.7 13.6 9.2 54 5.0 S 26 39 14 21 1021.2 - 0.0
04/10:30am 17.5 12.5 9.4 59 4.3 S 26 35 14 19 1021.2 - 0.0
04/10:00am 17.4 12.4 9.6 60 4.1 S 26 35 14 19 1021.2 - 0.0
04/09:30am 17.0 12.4 9.7 62 3.9 SSE 24 35 13 19 1021.0 - 0.0
04/09:00am 17.0 12.8 9.9 63 3.7 S 22 35 12 19 1020.8 1020.3 0.0
04/08:30am 16.2 13.0 10.1 67 3.2 S 17 24 9 13 1020.4 - 0.0
04/08:00am 15.2 12.0 9.8 70 2.8 S 17 24 9 13 1020.0 - 0.0
04/07:30am 14.7 11.9 9.9 73 2.5 S 15 19 8 10 1019.8 - 0.0
04/07:00am 14.3 10.6 9.5 73 2.5 S 19 24 10 13 1019.6 - 0.0
04/06:30am 14.6 10.4 9.6 72 2.6 S 22 32 12 17 1019.2 - 0.0
04/06:00am 14.7 11.3 9.3 70 2.8 S 17 26 9 14 1018.8 1018.3 0.0
04/05:30am 14.9 11.2 9.5 70 2.8 S 19 26 10 14 1018.4 - 0.0
04/05:00am 15.0 12.1 9.8 71 2.7 S 15 20 8 11 1018.2 - 0.0
04/04:30am 15.0 12.1 9.6 70 2.8 S 15 22 8 12 1018.1 - 0.0
04/04:00am 15.0 12.0 9.4 69 2.9 S 15 24 8 13 1017.8 - 0.0
04/03:30am 15.1 12.1 9.2 68 3.0 S 15 22 8 12 1017.8 - 0.0
04/03:00am 15.0 11.6 9.1 68 3.0 SSE 17 28 9 15 1017.9 1017.4 0.0
04/02:30am 15.3 10.5 8.8 65 3.3 SSE 24 35 13 19 1018.0 - 0.0
04/02:00am 15.4 12.0 9.3 67 3.2 SSE 17 28 9 15 1017.9 - 0.0
04/01:30am 15.6 11.9 9.5 67 3.2 S 19 28 10 15 1018.1 - 0.0
04/01:00am 15.7 12.4 9.4 66 3.3 SSE 17 26 9 14 1018.3 - 0.0
04/12:30am 15.7 12.0 9.4 66 3.3 S 19 30 10 16 1018.3 - 0.0
04/12:00am 15.8 12.5 9.7 67 3.2 S 17 24 9 13 1018.3 1017.8 0.0
 
Date/Time
EDT
Temp
°C
App
Temp
°C
Dew
Point
Rel
Hum
%
Delta-T
°C
Wind Press
QNH
hPa
Press
MSL
hPa
Rain
since 9 am
mm
Dir
 
Spd
km/h
Gust
km/h
Spd
kts
Gust
kts
03/11:30pm 16.0 12.3 9.4 65 3.4 S 19 32 10 17 1018.4 - 0.0
03/11:00pm 16.0 12.0 9.2 64 3.5 S 20 30 11 16 1018.5 - 0.0
03/10:30pm 16.2 12.9 9.4 64 3.5 S 17 26 9 14 1018.4 - 0.0
03/10:00pm 16.5 12.6 9.4 63 3.7 S 20 28 11 15 1018.3 - 0.0
03/09:30pm 16.6 13.0 10.0 65 3.5 S 19 26 10 14 1017.9 - 0.0
03/09:00pm 16.8 12.7 10.2 65 3.5 S 22 32 12 17 1017.5 1017.0 0.0
03/08:30pm 17.4 13.5 9.3 59 4.3 S 20 30 11 16 1017.1 - 0.0
03/08:00pm 17.6 12.3 8.5 55 4.7 S 26 35 14 19 1016.7 - 0.0
03/07:30pm 18.4 13.2 8.7 53 5.1 S 26 39 14 21 1016.2 - 0.0
03/07:00pm 18.2 13.2 9.5 57 4.6 S 26 39 14 21 1015.8 - 0.0
03/06:30pm 19.0 14.2 8.9 52 5.3 SSW 24 39 13 21 1015.4 - 0.0
03/06:00pm 19.7 13.6 8.4 48 5.9 SSW 30 41 16 22 1015.0 1014.5 0.0
03/05:30pm 20.2 13.6 8.5 47 6.1 S 33 44 18 24 1014.7 - 0.0
03/05:00pm 21.1 14.9 7.7 42 7.0 S 30 43 16 23 1014.4 - 0.0
03/04:30pm 22.0 17.1 8.5 42 7.2 S 24 37 13 20 1014.1 - 0.0
03/04:00pm 20.7 14.6 8.4 45 6.5 S 30 43 16 23 1014.1 - 0.0
03/03:30pm 21.3 15.4 9.2 46 6.5 S 30 44 16 24 1014.0 - 0.0
03/03:20pm 22.1 16.5 8.6 42 7.2 SSW 28 46 15 25 1013.8 - 0.0
03/03:00pm 21.9 16.2 8.4 42 7.2 SSW 28 43 15 23 1013.6 1013.1 0.0
03/02:33pm 21.5 15.6 9.1 45 6.6 S 30 48 16 26 1013.4 - 0.0
03/02:30pm 22.3 16.7 8.8 42 7.2 S 28 39 15 21 1013.4 - 0.0
03/02:00pm 21.7 16.1 8.9 44 6.8 S 28 41 15 22 1013.1 - 0.0
03/01:41pm 20.6 15.1 9.2 48 6.1 S 28 46 15 25 1013.0 - 0.0
03/01:30pm 21.3 15.6 8.2 43 6.9 S 28 43 15 23 1012.8 - 0.0
03/01:00pm 21.8 15.9 9.0 44 6.9 S 30 41 16 22 1012.8 - 0.0
03/12:30pm 19.9 16.2 11.4 58 4.7 S 22 30 12 16 1012.7 - 0.0
03/12:00pm 18.2 14.2 11.7 66 3.6 S 24 33 13 18 1012.6 1012.1 0.0
03/11:30am 17.3 13.8 13.4 78 2.2 S 24 32 13 17 1012.4 - 0.0

Other Formats:

Comma delimited format used in spreadsheet applications
http://www.bom.gov.au/fwo/IDV60801/IDV60801.95825.axf

JavaScript Object Notation format (JSON) in row-major order
http://www.bom.gov.au/fwo/IDV60801/IDV60801.95825.json